sensor_id;sensor_type;location;lat;lon;timestamp;P1;durP1;ratioP1;P2;durP2;ratioP2
69381;SDS011;56560;50.692;12.844;2023-06-10T00:00:42;22.92;;;12.50;;
69381;SDS011;56560;50.692;12.844;2023-06-10T00:03:09;22.70;;;11.80;;
69381;SDS011;56560;50.692;12.844;2023-06-10T00:05:35;20.80;;;11.20;;
69381;SDS011;56560;50.692;12.844;2023-06-10T00:08:03;20.50;;;11.00;;
69381;SDS011;56560;50.692;12.844;2023-06-10T00:10:35;20.45;;;10.90;;
69381;SDS011;56560;50.692;12.844;2023-06-10T00:13:04;24.38;;;12.27;;
69381;SDS011;56560;50.692;12.844;2023-06-10T00:15:33;25.47;;;13.10;;
69381;SDS011;56560;50.692;12.844;2023-06-10T00:18:00;25.48;;;13.23;;
69381;SDS011;56560;50.692;12.844;2023-06-10T00:20:27;25.30;;;13.80;;
69381;SDS011;56560;50.692;12.844;2023-06-10T00:22:53;25.88;;;14.52;;
69381;SDS011;56560;50.692;12.844;2023-06-10T00:25:18;26.90;;;14.10;;
69381;SDS011;56560;50.692;12.844;2023-06-10T00:27:44;24.03;;;12.10;;
69381;SDS011;56560;50.692;12.844;2023-06-10T00:30:10;23.75;;;12.63;;
69381;SDS011;56560;50.692;12.844;2023-06-10T00:32:36;21.13;;;11.70;;
69381;SDS011;56560;50.692;12.844;2023-06-10T00:35:02;22.25;;;12.30;;
69381;SDS011;56560;50.692;12.844;2023-06-10T00:37:28;24.50;;;12.63;;
69381;SDS011;56560;50.692;12.844;2023-06-10T00:39:55;22.63;;;12.25;;
69381;SDS011;56560;50.692;12.844;2023-06-10T00:42:21;21.30;;;12.25;;
69381;SDS011;56560;50.692;12.844;2023-06-10T00:44:49;25.27;;;13.68;;
69381;SDS011;56560;50.692;12.844;2023-06-10T00:47:18;26.50;;;14.27;;
69381;SDS011;56560;50.692;12.844;2023-06-10T00:49:44;27.08;;;14.82;;
69381;SDS011;56560;50.692;12.844;2023-06-10T00:52:11;26.65;;;15.43;;
69381;SDS011;56560;50.692;12.844;2023-06-10T00:54:37;27.85;;;15.60;;
69381;SDS011;56560;50.692;12.844;2023-06-10T00:57:04;24.37;;;13.73;;
69381;SDS011;56560;50.692;12.844;2023-06-10T00:59:30;24.48;;;13.02;;
69381;SDS011;56560;50.692;12.844;2023-06-10T01:01:57;24.38;;;13.85;;
69381;SDS011;56560;50.692;12.844;2023-06-10T01:04:23;25.52;;;13.73;;
69381;SDS011;56560;50.692;12.844;2023-06-10T01:12:10;24.55;;;13.00;;
69381;SDS011;56560;50.692;12.844;2023-06-10T01:14:41;24.77;;;13.30;;
69381;SDS011;56560;50.692;12.844;2023-06-10T01:17:10;24.63;;;13.80;;
69381;SDS011;56560;50.692;12.844;2023-06-10T01:19:36;30.50;;;15.02;;
69381;SDS011;56560;50.692;12.844;2023-06-10T01:22:02;32.53;;;16.63;;
69381;SDS011;56560;50.692;12.844;2023-06-10T01:24:30;29.35;;;15.60;;
69381;SDS011;56560;50.692;12.844;2023-06-10T01:27:00;26.48;;;14.85;;
69381;SDS011;56560;50.692;12.844;2023-06-10T01:29:33;22.33;;;12.68;;
69381;SDS011;56560;50.692;12.844;2023-06-10T01:34:43;22.27;;;10.93;;
69381;SDS011;56560;50.692;12.844;2023-06-10T01:37:12;23.52;;;13.38;;
69381;SDS011;56560;50.692;12.844;2023-06-10T01:39:40;22.48;;;12.77;;
69381;SDS011;56560;50.692;12.844;2023-06-10T01:42:07;26.70;;;13.57;;
69381;SDS011;56560;50.692;12.844;2023-06-10T01:44:35;26.63;;;14.40;;
69381;SDS011;56560;50.692;12.844;2023-06-10T01:47:00;23.35;;;13.00;;
69381;SDS011;56560;50.692;12.844;2023-06-10T01:49:26;25.53;;;13.23;;
69381;SDS011;56560;50.692;12.844;2023-06-10T01:51:53;23.08;;;12.57;;
69381;SDS011;56560;50.692;12.844;2023-06-10T01:54:19;22.42;;;12.45;;
69381;SDS011;56560;50.692;12.844;2023-06-10T01:56:45;22.50;;;12.63;;
69381;SDS011;56560;50.692;12.844;2023-06-10T01:59:10;24.85;;;13.45;;
69381;SDS011;56560;50.692;12.844;2023-06-10T02:01:36;25.27;;;13.30;;
69381;SDS011;56560;50.692;12.844;2023-06-10T02:04:02;22.35;;;11.85;;
69381;SDS011;56560;50.692;12.844;2023-06-10T02:06:27;22.60;;;11.07;;
69381;SDS011;56560;50.692;12.844;2023-06-10T02:08:53;22.95;;;11.32;;
69381;SDS011;56560;50.692;12.844;2023-06-10T02:11:19;25.20;;;12.23;;
69381;SDS011;56560;50.692;12.844;2023-06-10T02:13:44;23.80;;;12.23;;
69381;SDS011;56560;50.692;12.844;2023-06-10T02:16:10;27.35;;;12.70;;
69381;SDS011;56560;50.692;12.844;2023-06-10T02:18:37;27.13;;;13.80;;
69381;SDS011;56560;50.692;12.844;2023-06-10T02:21:05;26.77;;;13.57;;
69381;SDS011;56560;50.692;12.844;2023-06-10T02:23:31;26.88;;;13.77;;
69381;SDS011;56560;50.692;12.844;2023-06-10T02:25:57;30.70;;;14.27;;
69381;SDS011;56560;50.692;12.844;2023-06-10T02:28:23;28.63;;;13.70;;
69381;SDS011;56560;50.692;12.844;2023-06-10T02:30:48;25.13;;;12.90;;
69381;SDS011;56560;50.692;12.844;2023-06-10T02:33:14;27.73;;;12.82;;
69381;SDS011;56560;50.692;12.844;2023-06-10T02:35:40;25.38;;;12.02;;
69381;SDS011;56560;50.692;12.844;2023-06-10T02:38:06;24.90;;;12.38;;
69381;SDS011;56560;50.692;12.844;2023-06-10T02:40:32;24.52;;;12.23;;
69381;SDS011;56560;50.692;12.844;2023-06-10T02:42:58;24.52;;;11.65;;
69381;SDS011;56560;50.692;12.844;2023-06-10T02:45:24;24.63;;;12.13;;
69381;SDS011;56560;50.692;12.844;2023-06-10T02:47:49;23.20;;;11.50;;
69381;SDS011;56560;50.692;12.844;2023-06-10T02:50:15;22.40;;;11.67;;
69381;SDS011;56560;50.692;12.844;2023-06-10T02:52:41;22.65;;;11.45;;
69381;SDS011;56560;50.692;12.844;2023-06-10T02:55:06;22.57;;;11.07;;
69381;SDS011;56560;50.692;12.844;2023-06-10T02:57:32;22.42;;;11.57;;
69381;SDS011;56560;50.692;12.844;2023-06-10T02:59:58;23.47;;;10.90;;
69381;SDS011;56560;50.692;12.844;2023-06-10T03:02:24;22.90;;;11.52;;
69381;SDS011;56560;50.692;12.844;2023-06-10T03:04:56;23.27;;;11.07;;
69381;SDS011;56560;50.692;12.844;2023-06-10T03:07:22;23.02;;;10.88;;
69381;SDS011;56560;50.692;12.844;2023-06-10T03:09:48;25.53;;;11.80;;
69381;SDS011;56560;50.692;12.844;2023-06-10T03:12:15;25.98;;;12.13;;
69381;SDS011;56560;50.692;12.844;2023-06-10T03:14:41;22.77;;;11.38;;
69381;SDS011;56560;50.692;12.844;2023-06-10T03:17:06;22.87;;;12.13;;
69381;SDS011;56560;50.692;12.844;2023-06-10T03:19:33;24.50;;;11.77;;
69381;SDS011;56560;50.692;12.844;2023-06-10T03:24:41;20.55;;;11.02;;
69381;SDS011;56560;50.692;12.844;2023-06-10T03:27:09;21.30;;;10.27;;
69381;SDS011;56560;50.692;12.844;2023-06-10T03:29:36;21.23;;;10.95;;
69381;SDS011;56560;50.692;12.844;2023-06-10T03:32:02;20.15;;;10.40;;
69381;SDS011;56560;50.692;12.844;2023-06-10T03:34:28;21.58;;;10.80;;
69381;SDS011;56560;50.692;12.844;2023-06-10T03:36:58;22.38;;;10.60;;
69381;SDS011;56560;50.692;12.844;2023-06-10T03:39:25;21.20;;;10.43;;
69381;SDS011;56560;50.692;12.844;2023-06-10T03:41:53;20.20;;;10.45;;
69381;SDS011;56560;50.692;12.844;2023-06-10T03:44:19;22.10;;;11.25;;
69381;SDS011;56560;50.692;12.844;2023-06-10T03:46:45;20.80;;;10.73;;
69381;SDS011;56560;50.692;12.844;2023-06-10T03:49:12;23.83;;;11.00;;
69381;SDS011;56560;50.692;12.844;2023-06-10T03:51:38;21.20;;;10.88;;
69381;SDS011;56560;50.692;12.844;2023-06-10T03:54:04;19.07;;;10.03;;
69381;SDS011;56560;50.692;12.844;2023-06-10T03:56:30;18.92;;;10.40;;
69381;SDS011;56560;50.692;12.844;2023-06-10T03:58:56;21.95;;;10.10;;
69381;SDS011;56560;50.692;12.844;2023-06-10T04:01:22;19.10;;;9.77;;
69381;SDS011;56560;50.692;12.844;2023-06-10T04:03:49;18.10;;;9.80;;
69381;SDS011;56560;50.692;12.844;2023-06-10T04:06:16;17.00;;;9.70;;
69381;SDS011;56560;50.692;12.844;2023-06-10T04:08:42;20.67;;;10.77;;
69381;SDS011;56560;50.692;12.844;2023-06-10T04:11:08;20.67;;;11.10;;
69381;SDS011;56560;50.692;12.844;2023-06-10T04:13:34;20.35;;;10.50;;
69381;SDS011;56560;50.692;12.844;2023-06-10T04:15:59;18.10;;;9.97;;
69381;SDS011;56560;50.692;12.844;2023-06-10T04:18:25;18.67;;;10.40;;
69381;SDS011;56560;50.692;12.844;2023-06-10T04:20:51;17.77;;;10.37;;
69381;SDS011;56560;50.692;12.844;2023-06-10T04:23:16;18.25;;;10.13;;
69381;SDS011;56560;50.692;12.844;2023-06-10T04:25:42;19.30;;;10.85;;
69381;SDS011;56560;50.692;12.844;2023-06-10T04:28:08;17.97;;;10.10;;
69381;SDS011;56560;50.692;12.844;2023-06-10T04:30:33;18.45;;;10.52;;
69381;SDS011;56560;50.692;12.844;2023-06-10T04:32:59;18.83;;;10.73;;
69381;SDS011;56560;50.692;12.844;2023-06-10T04:35:24;20.63;;;10.20;;
69381;SDS011;56560;50.692;12.844;2023-06-10T04:37:52;17.63;;;9.95;;
69381;SDS011;56560;50.692;12.844;2023-06-10T04:40:18;17.52;;;10.30;;
69381;SDS011;56560;50.692;12.844;2023-06-10T04:42:44;19.02;;;10.25;;
69381;SDS011;56560;50.692;12.844;2023-06-10T04:45:10;18.27;;;10.40;;
69381;SDS011;56560;50.692;12.844;2023-06-10T04:47:36;19.92;;;10.90;;
69381;SDS011;56560;50.692;12.844;2023-06-10T04:50:02;18.90;;;10.85;;
69381;SDS011;56560;50.692;12.844;2023-06-10T04:52:29;18.90;;;10.65;;
69381;SDS011;56560;50.692;12.844;2023-06-10T04:54:54;17.93;;;10.20;;
69381;SDS011;56560;50.692;12.844;2023-06-10T04:57:21;18.25;;;10.32;;
69381;SDS011;56560;50.692;12.844;2023-06-10T04:59:47;18.60;;;10.27;;
69381;SDS011;56560;50.692;12.844;2023-06-10T05:02:13;17.48;;;10.25;;
69381;SDS011;56560;50.692;12.844;2023-06-10T05:04:38;18.98;;;10.43;;
69381;SDS011;56560;50.692;12.844;2023-06-10T05:07:04;17.48;;;9.98;;
69381;SDS011;56560;50.692;12.844;2023-06-10T05:09:30;17.45;;;10.18;;
69381;SDS011;56560;50.692;12.844;2023-06-10T05:11:56;16.95;;;9.88;;
69381;SDS011;56560;50.692;12.844;2023-06-10T05:14:22;17.10;;;9.82;;
69381;SDS011;56560;50.692;12.844;2023-06-10T05:16:47;18.80;;;10.57;;
69381;SDS011;56560;50.692;12.844;2023-06-10T05:19:13;19.00;;;10.65;;
69381;SDS011;56560;50.692;12.844;2023-06-10T05:21:41;17.65;;;10.23;;
69381;SDS011;56560;50.692;12.844;2023-06-10T05:24:07;17.90;;;10.27;;
69381;SDS011;56560;50.692;12.844;2023-06-10T05:26:32;16.05;;;9.63;;
69381;SDS011;56560;50.692;12.844;2023-06-10T05:29:02;16.08;;;9.75;;
69381;SDS011;56560;50.692;12.844;2023-06-10T05:31:28;18.02;;;9.75;;
69381;SDS011;56560;50.692;12.844;2023-06-10T05:33:53;15.77;;;9.50;;
69381;SDS011;56560;50.692;12.844;2023-06-10T05:36:19;16.23;;;9.37;;
69381;SDS011;56560;50.692;12.844;2023-06-10T05:38:44;16.75;;;8.98;;
69381;SDS011;56560;50.692;12.844;2023-06-10T05:41:10;15.43;;;8.73;;
69381;SDS011;56560;50.692;12.844;2023-06-10T05:43:36;15.25;;;8.68;;
69381;SDS011;56560;50.692;12.844;2023-06-10T05:46:01;15.07;;;8.60;;
69381;SDS011;56560;50.692;12.844;2023-06-10T05:48:27;14.27;;;7.95;;
69381;SDS011;56560;50.692;12.844;2023-06-10T05:50:52;13.65;;;7.50;;
69381;SDS011;56560;50.692;12.844;2023-06-10T05:53:18;16.33;;;8.87;;
69381;SDS011;56560;50.692;12.844;2023-06-10T05:55:44;15.80;;;8.68;;
69381;SDS011;56560;50.692;12.844;2023-06-10T05:58:11;14.68;;;8.73;;
69381;SDS011;56560;50.692;12.844;2023-06-10T06:00:40;14.07;;;7.70;;
69381;SDS011;56560;50.692;12.844;2023-06-10T06:03:07;16.10;;;7.65;;
69381;SDS011;56560;50.692;12.844;2023-06-10T06:05:35;13.50;;;7.60;;
69381;SDS011;56560;50.692;12.844;2023-06-10T06:08:06;14.23;;;7.80;;
69381;SDS011;56560;50.692;12.844;2023-06-10T06:10:32;12.93;;;7.50;;
69381;SDS011;56560;50.692;12.844;2023-06-10T06:12:58;13.00;;;7.67;;
69381;SDS011;56560;50.692;12.844;2023-06-10T06:15:24;13.20;;;7.55;;
69381;SDS011;56560;50.692;12.844;2023-06-10T06:17:50;14.60;;;7.95;;
69381;SDS011;56560;50.692;12.844;2023-06-10T06:20:19;13.13;;;7.85;;
69381;SDS011;56560;50.692;12.844;2023-06-10T06:22:48;13.47;;;8.10;;
69381;SDS011;56560;50.692;12.844;2023-06-10T06:25:13;13.50;;;7.85;;
69381;SDS011;56560;50.692;12.844;2023-06-10T06:27:39;13.32;;;7.70;;
69381;SDS011;56560;50.692;12.844;2023-06-10T06:30:05;13.80;;;7.60;;
69381;SDS011;56560;50.692;12.844;2023-06-10T06:32:31;13.65;;;7.53;;
69381;SDS011;56560;50.692;12.844;2023-06-10T06:34:57;13.73;;;7.57;;
69381;SDS011;56560;50.692;12.844;2023-06-10T06:37:24;14.75;;;8.30;;
69381;SDS011;56560;50.692;12.844;2023-06-10T06:39:50;14.27;;;8.10;;
69381;SDS011;56560;50.692;12.844;2023-06-10T06:42:16;15.45;;;8.02;;
69381;SDS011;56560;50.692;12.844;2023-06-10T06:44:42;14.75;;;7.85;;
69381;SDS011;56560;50.692;12.844;2023-06-10T06:47:08;17.37;;;8.30;;
69381;SDS011;56560;50.692;12.844;2023-06-10T06:49:34;14.45;;;8.70;;
69381;SDS011;56560;50.692;12.844;2023-06-10T06:51:59;14.13;;;8.50;;
69381;SDS011;56560;50.692;12.844;2023-06-10T06:54:25;14.05;;;8.50;;
69381;SDS011;56560;50.692;12.844;2023-06-10T06:56:50;14.27;;;8.47;;
69381;SDS011;56560;50.692;12.844;2023-06-10T06:59:16;13.95;;;8.48;;
69381;SDS011;56560;50.692;12.844;2023-06-10T07:01:44;15.97;;;8.83;;
69381;SDS011;56560;50.692;12.844;2023-06-10T07:04:10;14.25;;;8.55;;
69381;SDS011;56560;50.692;12.844;2023-06-10T07:06:36;14.48;;;8.43;;
69381;SDS011;56560;50.692;12.844;2023-06-10T07:09:03;15.95;;;8.57;;
69381;SDS011;56560;50.692;12.844;2023-06-10T07:11:29;13.63;;;7.63;;
69381;SDS011;56560;50.692;12.844;2023-06-10T07:13:55;15.35;;;8.15;;
69381;SDS011;56560;50.692;12.844;2023-06-10T07:16:21;15.43;;;8.65;;
69381;SDS011;56560;50.692;12.844;2023-06-10T07:18:47;15.50;;;8.37;;
69381;SDS011;56560;50.692;12.844;2023-06-10T07:21:12;14.15;;;8.65;;
69381;SDS011;56560;50.692;12.844;2023-06-10T07:23:41;17.30;;;8.10;;
69381;SDS011;56560;50.692;12.844;2023-06-10T07:26:07;16.35;;;8.40;;
69381;SDS011;56560;50.692;12.844;2023-06-10T07:28:36;14.07;;;7.97;;
69381;SDS011;56560;50.692;12.844;2023-06-10T07:31:02;15.95;;;8.50;;
69381;SDS011;56560;50.692;12.844;2023-06-10T07:33:28;15.00;;;8.50;;
69381;SDS011;56560;50.692;12.844;2023-06-10T07:35:53;13.75;;;7.72;;
69381;SDS011;56560;50.692;12.844;2023-06-10T07:38:19;14.80;;;8.07;;
69381;SDS011;56560;50.692;12.844;2023-06-10T07:40:45;15.25;;;8.43;;
69381;SDS011;56560;50.692;12.844;2023-06-10T07:43:11;14.83;;;8.23;;
69381;SDS011;56560;50.692;12.844;2023-06-10T07:45:36;14.23;;;8.05;;
69381;SDS011;56560;50.692;12.844;2023-06-10T07:48:04;14.77;;;8.57;;
69381;SDS011;56560;50.692;12.844;2023-06-10T07:50:30;15.37;;;8.67;;
69381;SDS011;56560;50.692;12.844;2023-06-10T07:52:55;14.02;;;8.70;;
69381;SDS011;56560;50.692;12.844;2023-06-10T07:55:21;14.20;;;8.63;;
69381;SDS011;56560;50.692;12.844;2023-06-10T07:57:47;16.92;;;8.48;;
69381;SDS011;56560;50.692;12.844;2023-06-10T08:00:13;13.60;;;8.50;;
69381;SDS011;56560;50.692;12.844;2023-06-10T08:02:39;15.60;;;8.80;;
69381;SDS011;56560;50.692;12.844;2023-06-10T08:05:05;15.40;;;8.73;;
69381;SDS011;56560;50.692;12.844;2023-06-10T08:07:31;14.55;;;9.00;;
69381;SDS011;56560;50.692;12.844;2023-06-10T08:09:56;16.37;;;8.73;;
69381;SDS011;56560;50.692;12.844;2023-06-10T08:12:22;16.15;;;8.77;;
69381;SDS011;56560;50.692;12.844;2023-06-10T08:14:48;13.67;;;8.53;;
69381;SDS011;56560;50.692;12.844;2023-06-10T08:17:13;17.27;;;9.10;;
69381;SDS011;56560;50.692;12.844;2023-06-10T08:19:39;14.20;;;8.93;;
69381;SDS011;56560;50.692;12.844;2023-06-10T08:22:05;16.47;;;8.70;;
69381;SDS011;56560;50.692;12.844;2023-06-10T08:24:30;16.10;;;9.23;;
69381;SDS011;56560;50.692;12.844;2023-06-10T08:26:56;16.07;;;9.63;;
69381;SDS011;56560;50.692;12.844;2023-06-10T08:29:22;15.02;;;10.23;;
69381;SDS011;56560;50.692;12.844;2023-06-10T08:31:48;15.90;;;9.33;;
69381;SDS011;56560;50.692;12.844;2023-06-10T08:34:14;14.48;;;8.88;;
69381;SDS011;56560;50.692;12.844;2023-06-10T08:36:40;13.52;;;9.23;;
69381;SDS011;56560;50.692;12.844;2023-06-10T08:39:06;17.37;;;9.17;;
69381;SDS011;56560;50.692;12.844;2023-06-10T08:41:35;14.65;;;9.18;;
69381;SDS011;56560;50.692;12.844;2023-06-10T08:44:22;15.65;;;9.45;;
69381;SDS011;56560;50.692;12.844;2023-06-10T08:46:52;13.70;;;9.48;;
69381;SDS011;56560;50.692;12.844;2023-06-10T08:49:20;14.40;;;8.93;;
69381;SDS011;56560;50.692;12.844;2023-06-10T08:51:58;17.00;;;9.40;;
69381;SDS011;56560;50.692;12.844;2023-06-10T08:54:25;13.98;;;9.30;;
69381;SDS011;56560;50.692;12.844;2023-06-10T08:56:55;16.90;;;9.40;;
69381;SDS011;56560;50.692;12.844;2023-06-10T08:59:22;15.85;;;9.77;;
69381;SDS011;56560;50.692;12.844;2023-06-10T09:01:48;16.92;;;9.95;;
69381;SDS011;56560;50.692;12.844;2023-06-10T09:04:15;16.17;;;9.50;;
69381;SDS011;56560;50.692;12.844;2023-06-10T09:06:42;15.27;;;9.55;;
69381;SDS011;56560;50.692;12.844;2023-06-10T09:09:09;15.27;;;9.55;;
69381;SDS011;56560;50.692;12.844;2023-06-10T09:11:35;15.02;;;9.68;;
69381;SDS011;56560;50.692;12.844;2023-06-10T09:14:03;14.82;;;9.50;;
69381;SDS011;56560;50.692;12.844;2023-06-10T09:16:28;16.30;;;10.03;;
69381;SDS011;56560;50.692;12.844;2023-06-10T09:18:54;19.75;;;10.38;;
69381;SDS011;56560;50.692;12.844;2023-06-10T09:21:23;15.83;;;9.33;;
69381;SDS011;56560;50.692;12.844;2023-06-10T09:23:50;15.98;;;9.05;;
69381;SDS011;56560;50.692;12.844;2023-06-10T09:26:16;14.70;;;9.60;;
69381;SDS011;56560;50.692;12.844;2023-06-10T09:28:47;13.57;;;9.10;;
69381;SDS011;56560;50.692;12.844;2023-06-10T09:31:14;15.00;;;9.03;;
69381;SDS011;56560;50.692;12.844;2023-06-10T09:33:43;17.02;;;9.65;;
69381;SDS011;56560;50.692;12.844;2023-06-10T09:36:09;13.80;;;9.18;;
69381;SDS011;56560;50.692;12.844;2023-06-10T09:38:35;17.50;;;9.05;;
69381;SDS011;56560;50.692;12.844;2023-06-10T09:41:02;17.80;;;9.63;;
69381;SDS011;56560;50.692;12.844;2023-06-10T09:43:41;14.88;;;9.40;;
69381;SDS011;56560;50.692;12.844;2023-06-10T09:46:18;13.88;;;8.27;;
69381;SDS011;56560;50.692;12.844;2023-06-10T09:48:45;15.25;;;9.32;;
69381;SDS011;56560;50.692;12.844;2023-06-10T09:51:13;15.83;;;9.47;;
69381;SDS011;56560;50.692;12.844;2023-06-10T09:53:39;14.98;;;9.30;;
69381;SDS011;56560;50.692;12.844;2023-06-10T09:56:04;15.13;;;9.35;;
69381;SDS011;56560;50.692;12.844;2023-06-10T09:58:40;15.97;;;9.97;;
69381;SDS011;56560;50.692;12.844;2023-06-10T10:01:08;15.52;;;9.23;;
69381;SDS011;56560;50.692;12.844;2023-06-10T10:06:15;15.20;;;9.60;;
69381;SDS011;56560;50.692;12.844;2023-06-10T10:08:42;16.48;;;9.57;;
69381;SDS011;56560;50.692;12.844;2023-06-10T10:11:08;16.17;;;9.27;;
69381;SDS011;56560;50.692;12.844;2023-06-10T10:13:37;15.18;;;8.77;;
69381;SDS011;56560;50.692;12.844;2023-06-10T10:16:04;14.02;;;8.73;;
69381;SDS011;56560;50.692;12.844;2023-06-10T10:18:35;14.38;;;8.48;;
69381;SDS011;56560;50.692;12.844;2023-06-10T10:21:11;15.32;;;9.50;;
69381;SDS011;56560;50.692;12.844;2023-06-10T10:23:40;12.57;;;8.20;;
69381;SDS011;56560;50.692;12.844;2023-06-10T10:26:14;13.70;;;8.50;;
69381;SDS011;56560;50.692;12.844;2023-06-10T10:28:44;12.88;;;7.95;;
69381;SDS011;56560;50.692;12.844;2023-06-10T10:31:14;13.68;;;7.55;;
69381;SDS011;56560;50.692;12.844;2023-06-10T10:33:54;15.45;;;8.00;;
69381;SDS011;56560;50.692;12.844;2023-06-10T10:36:23;14.03;;;7.97;;
69381;SDS011;56560;50.692;12.844;2023-06-10T10:38:49;13.60;;;7.78;;
69381;SDS011;56560;50.692;12.844;2023-06-10T10:41:16;15.10;;;7.22;;
69381;SDS011;56560;50.692;12.844;2023-06-10T10:43:43;13.02;;;7.60;;
69381;SDS011;56560;50.692;12.844;2023-06-10T10:46:14;11.40;;;7.05;;
69381;SDS011;56560;50.692;12.844;2023-06-10T10:48:42;17.20;;;6.77;;
69381;SDS011;56560;50.692;12.844;2023-06-10T10:51:09;13.50;;;7.00;;
69381;SDS011;56560;50.692;12.844;2023-06-10T10:53:39;12.70;;;7.50;;
69381;SDS011;56560;50.692;12.844;2023-06-10T10:56:15;12.50;;;7.50;;
69381;SDS011;56560;50.692;12.844;2023-06-10T10:58:45;11.95;;;6.82;;
69381;SDS011;56560;50.692;12.844;2023-06-10T11:01:48;12.93;;;7.43;;
69381;SDS011;56560;50.692;12.844;2023-06-10T11:04:17;13.35;;;7.18;;
69381;SDS011;56560;50.692;12.844;2023-06-10T11:06:52;12.30;;;7.82;;
69381;SDS011;56560;50.692;12.844;2023-06-10T11:09:25;18.13;;;7.45;;
69381;SDS011;56560;50.692;12.844;2023-06-10T11:11:58;13.25;;;7.30;;
69381;SDS011;56560;50.692;12.844;2023-06-10T11:14:27;12.80;;;7.07;;
69381;SDS011;56560;50.692;12.844;2023-06-10T11:16:56;13.63;;;6.25;;
69381;SDS011;56560;50.692;12.844;2023-06-10T11:19:32;11.30;;;6.80;;
69381;SDS011;56560;50.692;12.844;2023-06-10T11:22:00;15.70;;;6.28;;
69381;SDS011;56560;50.692;12.844;2023-06-10T11:24:32;11.15;;;6.68;;
69381;SDS011;56560;50.692;12.844;2023-06-10T11:27:14;13.43;;;6.20;;
69381;SDS011;56560;50.692;12.844;2023-06-10T11:32:31;14.38;;;6.13;;
69381;SDS011;56560;50.692;12.844;2023-06-10T11:34:58;10.82;;;6.13;;
69381;SDS011;56560;50.692;12.844;2023-06-10T11:37:24;11.27;;;6.50;;
69381;SDS011;56560;50.692;12.844;2023-06-10T11:39:54;12.57;;;6.95;;
69381;SDS011;56560;50.692;12.844;2023-06-10T11:42:20;11.98;;;6.20;;
69381;SDS011;56560;50.692;12.844;2023-06-10T11:44:51;12.48;;;6.63;;
69381;SDS011;56560;50.692;12.844;2023-06-10T11:47:17;13.20;;;7.07;;
69381;SDS011;56560;50.692;12.844;2023-06-10T11:49:44;12.50;;;6.80;;
69381;SDS011;56560;50.692;12.844;2023-06-10T11:52:11;12.00;;;7.22;;
69381;SDS011;56560;50.692;12.844;2023-06-10T11:54:37;12.73;;;6.90;;
69381;SDS011;56560;50.692;12.844;2023-06-10T11:57:03;12.35;;;7.30;;
69381;SDS011;56560;50.692;12.844;2023-06-10T11:59:30;14.27;;;6.60;;
69381;SDS011;56560;50.692;12.844;2023-06-10T12:01:56;12.57;;;6.77;;
69381;SDS011;56560;50.692;12.844;2023-06-10T12:04:22;12.70;;;6.88;;
69381;SDS011;56560;50.692;12.844;2023-06-10T12:11:44;12.53;;;6.73;;
69381;SDS011;56560;50.692;12.844;2023-06-10T12:14:13;11.63;;;6.43;;
69381;SDS011;56560;50.692;12.844;2023-06-10T12:16:38;11.05;;;6.72;;
69381;SDS011;56560;50.692;12.844;2023-06-10T12:19:05;13.20;;;6.10;;
69381;SDS011;56560;50.692;12.844;2023-06-10T12:21:32;10.10;;;6.50;;
69381;SDS011;56560;50.692;12.844;2023-06-10T12:24:06;10.57;;;6.55;;
69381;SDS011;56560;50.692;12.844;2023-06-10T12:26:35;12.35;;;6.70;;
69381;SDS011;56560;50.692;12.844;2023-06-10T12:32:00;10.73;;;6.70;;
69381;SDS011;56560;50.692;12.844;2023-06-10T12:34:35;13.80;;;7.00;;
69381;SDS011;56560;50.692;12.844;2023-06-10T12:37:03;11.40;;;7.10;;
69381;SDS011;56560;50.692;12.844;2023-06-10T12:39:30;11.52;;;7.05;;
69381;SDS011;56560;50.692;12.844;2023-06-10T12:41:57;11.50;;;6.80;;
69381;SDS011;56560;50.692;12.844;2023-06-10T12:44:30;10.82;;;7.00;;
69381;SDS011;56560;50.692;12.844;2023-06-10T12:46:56;11.38;;;6.97;;
69381;SDS011;56560;50.692;12.844;2023-06-10T12:49:22;10.70;;;6.50;;
69381;SDS011;56560;50.692;12.844;2023-06-10T12:51:47;10.77;;;6.40;;
69381;SDS011;56560;50.692;12.844;2023-06-10T12:54:13;10.10;;;6.60;;
69381;SDS011;56560;50.692;12.844;2023-06-10T12:56:39;11.07;;;6.70;;
69381;SDS011;56560;50.692;12.844;2023-06-10T12:59:04;13.27;;;6.50;;
69381;SDS011;56560;50.692;12.844;2023-06-10T13:01:31;10.65;;;6.38;;
69381;SDS011;56560;50.692;12.844;2023-06-10T13:03:57;13.65;;;6.80;;
69381;SDS011;56560;50.692;12.844;2023-06-10T13:06:23;12.55;;;6.47;;
69381;SDS011;56560;50.692;12.844;2023-06-10T13:08:48;9.20;;;5.70;;
69381;SDS011;56560;50.692;12.844;2023-06-10T13:11:15;10.25;;;5.97;;
69381;SDS011;56560;50.692;12.844;2023-06-10T13:13:41;10.37;;;6.20;;
69381;SDS011;56560;50.692;12.844;2023-06-10T13:16:07;10.20;;;5.70;;
69381;SDS011;56560;50.692;12.844;2023-06-10T13:18:33;10.40;;;5.80;;
69381;SDS011;56560;50.692;12.844;2023-06-10T13:21:05;9.85;;;5.95;;
69381;SDS011;56560;50.692;12.844;2023-06-10T13:23:31;10.57;;;5.85;;
69381;SDS011;56560;50.692;12.844;2023-06-10T13:25:57;11.23;;;5.90;;
69381;SDS011;56560;50.692;12.844;2023-06-10T13:28:23;10.60;;;6.05;;
69381;SDS011;56560;50.692;12.844;2023-06-10T13:30:48;10.38;;;5.90;;
69381;SDS011;56560;50.692;12.844;2023-06-10T13:33:15;10.00;;;6.47;;
69381;SDS011;56560;50.692;12.844;2023-06-10T13:35:40;10.82;;;6.35;;
69381;SDS011;56560;50.692;12.844;2023-06-10T13:38:06;12.30;;;6.80;;
69381;SDS011;56560;50.692;12.844;2023-06-10T13:40:32;11.07;;;6.80;;
69381;SDS011;56560;50.692;12.844;2023-06-10T13:42:58;12.45;;;6.60;;
69381;SDS011;56560;50.692;12.844;2023-06-10T13:45:23;9.90;;;6.40;;
69381;SDS011;56560;50.692;12.844;2023-06-10T13:47:49;13.43;;;6.65;;
69381;SDS011;56560;50.692;12.844;2023-06-10T13:50:15;9.87;;;6.37;;
69381;SDS011;56560;50.692;12.844;2023-06-10T13:52:41;11.17;;;6.50;;
69381;SDS011;56560;50.692;12.844;2023-06-10T13:55:07;11.53;;;6.57;;
69381;SDS011;56560;50.692;12.844;2023-06-10T13:57:33;11.50;;;6.90;;
69381;SDS011;56560;50.692;12.844;2023-06-10T13:59:58;10.45;;;6.60;;
69381;SDS011;56560;50.692;12.844;2023-06-10T14:02:24;11.93;;;6.60;;
69381;SDS011;56560;50.692;12.844;2023-06-10T14:04:50;11.98;;;6.70;;
69381;SDS011;56560;50.692;12.844;2023-06-10T14:07:16;10.47;;;7.10;;
69381;SDS011;56560;50.692;12.844;2023-06-10T14:09:42;11.18;;;6.78;;
69381;SDS011;56560;50.692;12.844;2023-06-10T14:12:08;10.68;;;6.80;;
69381;SDS011;56560;50.692;12.844;2023-06-10T14:14:34;10.30;;;6.70;;
69381;SDS011;56560;50.692;12.844;2023-06-10T14:17:01;11.80;;;7.17;;
69381;SDS011;56560;50.692;12.844;2023-06-10T14:19:28;11.18;;;7.22;;
69381;SDS011;56560;50.692;12.844;2023-06-10T14:21:53;13.37;;;7.10;;
69381;SDS011;56560;50.692;12.844;2023-06-10T14:24:20;11.77;;;6.80;;
69381;SDS011;56560;50.692;12.844;2023-06-10T14:26:46;11.63;;;7.15;;
69381;SDS011;56560;50.692;12.844;2023-06-10T14:29:11;11.37;;;6.67;;
69381;SDS011;56560;50.692;12.844;2023-06-10T14:31:39;11.07;;;6.30;;
69381;SDS011;56560;50.692;12.844;2023-06-10T14:34:05;11.88;;;6.13;;
69381;SDS011;56560;50.692;12.844;2023-06-10T14:36:33;10.80;;;6.55;;
69381;SDS011;56560;50.692;12.844;2023-06-10T14:38:59;10.00;;;6.75;;